sensor_id;sensor_type;location;lat;lon;timestamp;pressure;altitude;pressure_sealevel;temperature;humidity
20105;BME280;10212;42.714;23.310;2023-05-02T00:01:28;95498.66;;;11.01;78.23
20105;BME280;10212;42.714;23.310;2023-05-02T00:11:28;95504.25;;;10.91;78.52
20105;BME280;10212;42.714;23.310;2023-05-02T00:21:29;95502.22;;;10.87;79.61
20105;BME280;10212;42.714;23.310;2023-05-02T00:31:29;95503.63;;;10.82;79.50
20105;BME280;10212;42.714;23.310;2023-05-02T00:41:30;95519.50;;;10.88;79.96
20105;BME280;10212;42.714;23.310;2023-05-02T00:51:32;95536.38;;;10.98;79.81
20105;BME280;10212;42.714;23.310;2023-05-02T01:01:51;95519.19;;;11.18;78.99
20105;BME280;10212;42.714;23.310;2023-05-02T01:12:00;95532.94;;;11.47;78.43
20105;BME280;10212;42.714;23.310;2023-05-02T01:22:05;95524.28;;;11.40;78.49
20105;BME280;10212;42.714;23.310;2023-05-02T01:32:07;95506.19;;;11.31;79.27
20105;BME280;10212;42.714;23.310;2023-05-02T01:42:10;95515.63;;;11.32;79.37
20105;BME280;10212;42.714;23.310;2023-05-02T01:52:12;95523.25;;;11.27;79.65
20105;BME280;10212;42.714;23.310;2023-05-02T02:02:14;95525.19;;;11.12;80.61
20105;BME280;10212;42.714;23.310;2023-05-02T02:12:37;95521.16;;;11.09;81.24
20105;BME280;10212;42.714;23.310;2023-05-02T02:22:40;95520.69;;;10.92;82.21
20105;BME280;10212;42.714;23.310;2023-05-02T02:32:42;95521.06;;;10.82;82.59
20105;BME280;10212;42.714;23.310;2023-05-02T02:42:47;95526.81;;;10.70;83.97
20105;BME280;10212;42.714;23.310;2023-05-02T02:52:55;95534.19;;;10.60;83.80
20105;BME280;10212;42.714;23.310;2023-05-02T03:02:59;95545.69;;;10.44;84.41
20105;BME280;10212;42.714;23.310;2023-05-02T03:12:59;95557.88;;;10.36;85.43
20105;BME280;10212;42.714;23.310;2023-05-02T03:23:00;95568.06;;;10.31;85.79
20105;BME280;10212;42.714;23.310;2023-05-02T03:33:00;95568.88;;;10.32;85.16
20105;BME280;10212;42.714;23.310;2023-05-02T03:43:03;95567.69;;;10.34;85.23
20105;BME280;10212;42.714;23.310;2023-05-02T03:53:04;95578.09;;;10.56;84.42
20105;BME280;10212;42.714;23.310;2023-05-02T04:03:04;95568.72;;;10.62;84.49
20105;BME280;10212;42.714;23.310;2023-05-02T04:13:05;95582.00;;;10.74;84.15
20105;BME280;10212;42.714;23.310;2023-05-02T04:23:05;95575.91;;;10.95;82.99
20105;BME280;10212;42.714;23.310;2023-05-02T04:33:05;95576.16;;;11.07;83.08
20105;BME280;10212;42.714;23.310;2023-05-02T04:43:06;95585.50;;;11.30;79.57
20105;BME280;10212;42.714;23.310;2023-05-02T04:53:06;95586.81;;;11.55;77.82
20105;BME280;10212;42.714;23.310;2023-05-02T05:03:07;95593.47;;;11.71;76.78
20105;BME280;10212;42.714;23.310;2023-05-02T05:13:07;95586.44;;;11.78;75.54
20105;BME280;10212;42.714;23.310;2023-05-02T05:23:08;95586.09;;;11.88;74.18
20105;BME280;10212;42.714;23.310;2023-05-02T05:33:08;95597.72;;;11.92;74.01
20105;BME280;10212;42.714;23.310;2023-05-02T05:43:09;95591.34;;;12.22;71.74
20105;BME280;10212;42.714;23.310;2023-05-02T05:53:09;95596.00;;;12.27;69.49
20105;BME280;10212;42.714;23.310;2023-05-02T06:03:10;95599.97;;;12.70;68.27
20105;BME280;10212;42.714;23.310;2023-05-02T06:13:10;95606.81;;;12.85;67.05
20105;BME280;10212;42.714;23.310;2023-05-02T06:23:11;95593.25;;;13.15;65.57
20105;BME280;10212;42.714;23.310;2023-05-02T06:33:11;95597.41;;;13.36;63.82
20105;BME280;10212;42.714;23.310;2023-05-02T06:43:12;95596.75;;;13.55;61.77
20105;BME280;10212;42.714;23.310;2023-05-02T06:53:13;95594.16;;;13.87;58.88
20105;BME280;10212;42.714;23.310;2023-05-02T07:03:13;95580.28;;;14.12;57.87
